Time;durP1;ratioP1;P1;durP2;ratioP2;P2;SDS_P1;SDS_P2;PMS_P1;PMS_P2;Temp;Humidity;BMP_temperature;BMP_pressure;BME280_temperature;BME280_humidity;BME280_pressure;Samples;Min_cycle;Max_cycle;Signal;HPM_P1;HPM_P2
2022/04/11 00:01:54;;;;;;;1.40;1.30;;;;;;;14.44;50.92;99124.70;1831989;77;21117;-60
2022/04/11 00:04:21;;;;;;;1.65;1.35;;;;;;;14.44;50.92;99124.70;1831706;78;21045;-59
2022/04/11 00:06:49;;;;;;;1.45;1.30;;;;;;;14.43;50.95;99129.75;1829795;78;21009;-60
2022/04/11 00:09:17;;;;;;;1.40;1.30;;;;;;;14.43;50.93;99132.92;1799016;79;21057;-60
2022/04/11 00:11:43;;;;;;;1.60;1.50;;;;;;;14.42;50.94;99124.61;1799501;79;21544;-60
2022/04/11 00:14:12;;;;;;;1.75;1.50;;;;;;;14.41;50.96;99126.96;1799109;79;21595;-60
2022/04/11 00:16:40;;;;;;;1.40;1.30;;;;;;;14.40;50.97;99130.16;1799193;79;21025;-60
2022/04/11 00:19:08;;;;;;;1.30;1.20;;;;;;;14.40;50.99;99129.34;1799331;79;21332;-60
2022/04/11 00:21:37;;;;;;;1.32;1.22;;;;;;;14.40;50.98;99133.34;1799204;79;21041;-59
2022/04/11 00:24:04;;;;;;;1.12;1.05;;;;;;;14.38;50.99;99125.53;1800359;78;21049;-59
2022/04/11 00:26:33;;;;;;;1.30;1.20;;;;;;;14.38;50.99;99122.05;1799312;79;20997;-59
2022/04/11 00:29:00;;;;;;;1.52;1.42;;;;;;;14.38;50.99;99120.19;1799350;79;21002;-59
2022/04/11 00:31:26;;;;;;;1.75;1.15;;;;;;;14.37;51.01;99115.89;1799110;79;21091;-59
2022/04/11 00:33:54;;;;;;;1.30;1.20;;;;;;;14.37;51.01;99123.91;1799187;79;21057;-60
2022/04/11 00:36:21;;;;;;;1.32;1.22;;;;;;;14.35;51.00;99128.12;1799067;79;21020;-59
2022/04/11 00:38:47;;;;;;;3.33;1.12;;;;;;;14.35;51.02;99122.77;1799282;79;21246;-59
2022/04/11 00:41:15;;;;;;;1.10;1.02;;;;;;;14.35;51.03;99133.95;1800160;78;20993;-60
2022/04/11 00:43:43;;;;;;;1.22;1.12;;;;;;;14.34;51.05;99131.80;1799139;79;21045;-59
2022/04/11 00:46:10;;;;;;;1.35;1.10;;;;;;;14.35;51.04;99140.63;1799351;79;21075;-60
2022/04/11 00:48:37;;;;;;;1.40;1.10;;;;;;;14.34;51.07;99142.49;1799045;79;21516;-59
2022/04/11 00:51:13;;;;;;;1.75;1.20;;;;;;;14.33;51.05;99138.69;1818934;78;21168;-60
2022/04/11 00:53:42;;;;;;;1.30;1.20;;;;;;;14.34;51.08;99137.67;1816626;78;21056;-60
2022/04/11 00:56:11;;;;;;;1.40;1.30;;;;;;;14.33;51.06;99136.02;1832153;77;21016;-59
2022/04/11 00:58:39;;;;;;;1.90;1.40;;;;;;;14.32;51.08;99141.06;1799080;79;21028;-58
2022/04/11 01:01:05;;;;;;;1.30;1.20;;;;;;;14.31;51.08;99146.94;1795412;80;21513;-59
2022/04/11 01:03:33;;;;;;;1.17;1.07;;;;;;;14.32;51.11;99147.75;1795585;80;21073;-59
2022/04/11 01:06:00;;;;;;;1.50;1.37;;;;;;;14.31;51.11;99140.25;1795511;80;21012;-60
2022/04/11 01:08:28;;;;;;;1.40;1.15;;;;;;;14.30;51.11;99142.60;1814333;78;21028;-58
2022/04/11 01:10:55;;;;;;;1.40;1.30;;;;;;;14.30;51.11;99147.95;1831802;78;21030;-59
2022/04/11 01:13:22;;;;;;;1.80;1.30;;;;;;;14.30;51.12;99153.29;1831747;78;21076;-58
2022/04/11 01:15:59;;;;;;;1.30;1.05;;;;;;;14.30;51.12;99158.63;1816081;77;21044;-60
2022/04/11 01:18:27;;;;;;;1.30;1.20;;;;;;;14.29;51.14;99153.00;1799095;79;21088;-60
2022/04/11 01:20:54;;;;;;;1.40;1.10;;;;;;;14.28;51.17;99151.86;1799213;79;21017;-59
2022/04/11 01:23:21;;;;;;;2.20;1.92;;;;;;;14.28;51.16;99149.19;1799445;79;21040;-59
2022/04/11 01:25:52;;;;;;;1.80;1.37;;;;;;;14.28;51.16;99153.20;1783692;79;21028;-59
2022/04/11 01:28:20;;;;;;;1.40;1.27;;;;;;;14.27;51.16;99146.20;1799122;79;21197;-59
2022/04/11 01:30:50;;;;;;;1.35;1.25;;;;;;;14.26;51.18;99146.72;1799219;79;21029;-59
2022/04/11 01:33:23;;;;;;;1.10;1.00;;;;;;;14.26;51.17;99148.05;1800308;78;21068;-59
2022/04/11 01:35:50;;;;;;;1.52;1.25;;;;;;;14.25;51.19;99143.73;1799292;79;20970;-60
2022/04/11 01:38:17;;;;;;;1.30;1.17;;;;;;;14.25;51.18;99140.23;1799284;79;21509;-60
2022/04/11 01:40:55;;;;;;;1.65;1.42;;;;;;;14.23;51.19;99136.44;1799280;79;21265;-59
2022/04/11 01:43:23;;;;;;;1.32;1.22;;;;;;;14.23;51.23;99138.30;1799179;79;21040;-60
2022/04/11 01:45:50;;;;;;;1.60;1.22;;;;;;;14.23;51.20;99140.44;1799607;79;21037;-59
2022/04/11 01:48:18;;;;;;;1.45;1.30;;;;;;;14.22;51.23;99136.14;1799036;79;21036;-59
2022/04/11 01:50:46;;;;;;;1.32;1.10;;;;;;;14.21;51.22;99135.01;1815612;78;21029;-59
2022/04/11 01:53:14;;;;;;;1.20;1.10;;;;;;;14.21;51.22;99137.16;1832021;78;21309;-59
2022/04/11 01:55:43;;;;;;;1.98;1.30;;;;;;;14.21;51.25;99141.69;1831977;78;21053;-59
2022/04/11 01:58:11;;;;;;;1.32;1.20;;;;;;;14.21;51.22;99139.83;1831906;78;21064;-59
2022/04/11 02:00:39;;;;;;;1.22;1.10;;;;;;;14.20;51.24;99132.86;1832050;77;21489;-60
2022/04/11 02:03:07;;;;;;;1.20;1.10;;;;;;;14.20;51.22;99136.02;1832082;78;21080;-60
2022/04/11 02:05:34;;;;;;;1.40;1.30;;;;;;;14.19;51.23;99135.20;1832070;78;21230;-60
2022/04/11 02:08:03;;;;;;;1.20;1.10;;;;;;;14.19;51.26;99133.06;1800514;78;21037;-60
2022/04/11 02:10:31;;;;;;;1.15;1.07;;;;;;;14.18;51.25;99140.26;1799116;79;21056;-60
2022/04/11 02:12:59;;;;;;;1.30;1.20;;;;;;;14.18;51.28;99141.59;1799211;79;21493;-59
2022/04/11 02:15:26;;;;;;;1.40;1.30;;;;;;;14.18;51.27;99142.93;1817085;78;21016;-59
2022/04/11 02:17:53;;;;;;;1.50;1.40;;;;;;;14.18;51.27;99150.09;1825850;78;21060;-59
2022/04/11 02:20:20;;;;;;;1.40;1.30;;;;;;;14.16;51.29;99146.33;1826098;78;20974;-59
2022/04/11 02:22:57;;;;;;;1.67;1.50;;;;;;;14.16;51.30;99141.80;1823964;78;21512;-59
2022/04/11 02:25:28;;;;;;;1.40;1.30;;;;;;;14.15;51.30;99140.13;1793308;80;21486;-60
2022/04/11 02:28:00;;;;;;;1.52;1.40;;;;;;;14.15;51.29;99137.98;1793504;80;21465;-59
2022/04/11 02:30:26;;;;;;;1.30;1.10;;;;;;;14.14;51.30;99147.05;1792860;79;21806;-59
2022/04/11 02:32:54;;;;;;;2.08;1.37;;;;;;;14.14;51.30;99148.37;1793375;79;21001;-59
2022/04/11 02:35:21;;;;;;;1.15;1.05;;;;;;;14.13;51.33;99152.88;1793319;80;21021;-59
2022/04/11 02:37:49;;;;;;;1.70;1.30;;;;;;;14.13;51.32;99148.88;1793332;80;21052;-59
2022/04/11 02:40:16;;;;;;;1.37;1.27;;;;;;;14.12;51.34;99152.59;1794685;78;20981;-59
2022/04/11 02:42:45;;;;;;;1.95;1.20;;;;;;;14.12;51.33;99155.78;1792461;79;21258;-60
2022/04/11 02:45:14;;;;;;;1.85;1.30;;;;;;;14.11;51.35;99155.45;1793493;80;21005;-59
2022/04/11 02:47:41;;;;;;;1.30;1.20;;;;;;;14.11;51.35;99151.45;1793430;80;21005;-59
2022/04/11 02:50:09;;;;;;;1.40;1.30;;;;;;;14.11;51.36;99146.11;1814101;78;21001;-59
2022/04/11 02:52:53;;;;;;;1.45;1.32;;;;;;;14.11;51.35;99136.23;1790549;78;21489;-59
2022/04/11 02:55:21;;;;;;;2.08;1.50;;;;;;;14.11;51.35;99136.76;1825845;78;21943;-59
2022/04/11 02:57:48;;;;;;;1.47;1.37;;;;;;;14.10;51.36;99137.77;1824677;78;21485;-58
2022/04/11 03:00:17;;;;;;;1.40;1.30;;;;;;;14.08;51.40;99136.67;1825750;78;21037;-59
2022/04/11 03:02:46;;;;;;;1.50;1.12;;;;;;;14.08;51.37;99141.16;1825231;78;21525;-59
2022/04/11 03:05:13;;;;;;;1.12;1.05;;;;;;;14.08;51.37;99147.84;1825754;78;21010;-59
2022/04/11 03:07:41;;;;;;;1.67;1.30;;;;;;;14.08;51.40;99143.84;1825791;78;21132;-59
2022/04/11 03:10:09;;;;;;;1.50;1.30;;;;;;;14.07;51.41;99148.36;1825738;78;20963;-59
2022/04/11 03:12:37;;;;;;;1.95;1.60;;;;;;;14.07;51.40;99148.88;1825760;78;21045;-59
2022/04/11 03:15:09;;;;;;;1.87;1.62;;;;;;;14.06;51.41;99149.89;1804553;78;21006;-60
2022/04/11 03:17:38;;;;;;;2.25;1.47;;;;;;;14.06;51.41;99143.22;1805883;78;21323;-59
2022/04/11 03:20:06;;;;;;;2.00;1.50;;;;;;;14.05;51.43;99142.93;1823471;78;21246;-59
2022/04/11 03:22:36;;;;;;;2.20;1.95;;;;;;;14.05;51.40;99149.61;1821335;78;21060;-58
2022/04/11 03:25:08;;;;;;;2.75;1.87;;;;;;;14.05;51.40;99151.75;1825871;78;21643;-59
2022/04/11 03:27:35;;;;;;;2.30;1.70;;;;;;;14.04;51.41;99149.28;1825787;78;21494;-61
2022/04/11 03:30:05;;;;;;;3.27;2.20;;;;;;;14.03;51.40;99145.80;1825805;78;20990;-61
2022/04/11 03:32:34;;;;;;;3.33;2.08;;;;;;;14.03;51.44;99147.66;1800356;78;21048;-59
2022/04/11 03:35:02;;;;;;;3.40;2.35;;;;;;;14.02;51.45;99144.14;1793555;80;22033;-59
2022/04/11 03:37:29;;;;;;;4.20;2.17;;;;;;;14.03;51.44;99144.98;1773412;80;21049;-59
2022/04/11 03:39:58;;;;;;;2.67;1.98;;;;;;;14.02;51.44;99152.15;1793117;79;21155;-59
2022/04/11 03:42:25;;;;;;;3.55;2.37;;;;;;;14.02;51.42;99159.34;1793229;80;20999;-58
2022/04/11 03:44:52;;;;;;;3.65;2.52;;;;;;;14.01;51.45;99157.72;1793282;80;21227;-59
2022/04/11 03:47:20;;;;;;;4.17;2.58;;;;;;;14.01;51.46;99159.05;1793322;79;21025;-59
2022/04/11 03:49:47;;;;;;;4.45;2.62;;;;;;;14.01;51.47;99168.41;1810362;78;21014;-59
2022/04/11 03:52:16;;;;;;;4.62;2.95;;;;;;;14.00;51.47;99178.24;1825174;78;21620;-60
2022/04/11 03:54:43;;;;;;;3.83;2.27;;;;;;;14.00;51.46;99181.43;1825784;78;21061;-59
2022/04/11 03:57:09;;;;;;;3.25;2.75;;;;;;;14.00;51.50;99181.43;1805119;78;21224;-59
2022/04/11 03:59:38;;;;;;;4.25;3.12;;;;;;;14.00;51.49;99186.77;1825729;78;21072;-60
2022/04/11 04:02:05;;;;;;;4.55;2.77;;;;;;;13.99;51.49;99192.63;1825822;78;21517;-59
2022/04/11 04:04:32;;;;;;;4.33;2.98;;;;;;;13.99;51.50;99191.82;1825711;78;21009;-60
2022/04/11 04:06:59;;;;;;;4.00;2.58;;;;;;;13.99;51.49;99195.30;1824577;78;21478;-59
2022/04/11 04:09:26;;;;;;;5.78;3.17;;;;;;;13.99;51.51;99189.16;1825671;78;21186;-59
2022/04/11 04:11:53;;;;;;;5.03;2.62;;;;;;;13.99;51.54;99194.49;1805094;78;21026;-59
2022/04/11 04:14:21;;;;;;;4.33;2.72;;;;;;;13.99;51.53;99198.50;1824113;76;21026;-59
2022/04/11 04:16:51;;;;;;;5.12;3.00;;;;;;;13.99;51.53;99197.98;1829021;78;21026;-59
2022/04/11 04:19:19;;;;;;;4.58;2.70;;;;;;;13.99;51.53;99192.63;1828506;78;21033;-60
2022/04/11 04:21:46;;;;;;;4.00;2.77;;;;;;;14.00;51.54;99192.93;1827787;78;21076;-59
2022/04/11 04:24:15;;;;;;;4.30;2.77;;;;;;;14.00;51.53;99188.11;1828899;78;21061;-60
2022/04/11 04:26:42;;;;;;;4.60;3.02;;;;;;;14.00;51.54;99188.11;1823195;78;21029;-60
2022/04/11 04:29:09;;;;;;;5.28;2.90;;;;;;;14.00;51.54;99188.11;1857092;77;21454;-59
2022/04/11 04:31:38;;;;;;;3.50;2.50;;;;;;;14.00;51.55;99191.59;1862670;76;21509;-59
2022/04/11 04:34:05;;;;;;;4.03;2.25;;;;;;;14.01;51.57;99195.11;1862838;77;21217;-59
2022/04/11 04:36:32;;;;;;;5.35;2.92;;;;;;;14.01;51.58;99192.44;1862647;77;21048;-59
2022/04/11 04:39:02;;;;;;;4.67;3.05;;;;;;;14.01;51.58;99192.44;1853387;76;21013;-59
2022/04/11 04:41:29;;;;;;;5.03;3.08;;;;;;;14.02;51.58;99202.89;1778429;79;21553;-59
2022/04/11 04:43:57;;;;;;;5.60;3.50;;;;;;;14.02;51.60;99201.55;1796409;79;20998;-59
2022/04/11 04:46:24;;;;;;;4.95;3.12;;;;;;;14.02;51.59;99202.89;1796255;79;21129;-60
2022/04/11 04:48:54;;;;;;;4.53;3.12;;;;;;;14.03;51.62;99200.55;1813225;78;21559;-60
2022/04/11 04:51:22;;;;;;;5.50;3.17;;;;;;;14.04;51.61;99202.69;1828817;78;21021;-60
2022/04/11 04:53:50;;;;;;;5.08;2.98;;;;;;;14.05;51.61;99209.17;1828428;78;21025;-60
2022/04/11 04:56:17;;;;;;;5.05;3.17;;;;;;;14.05;51.60;99207.84;1827703;78;21017;-60
2022/04/11 04:58:45;;;;;;;4.15;2.90;;;;;;;14.05;51.60;99211.03;1829071;78;21965;-59
2022/04/11 05:01:13;;;;;;;4.30;3.20;;;;;;;14.05;51.63;99210.51;1828794;78;21010;-60
2022/04/11 05:03:41;;;;;;;4.50;2.95;;;;;;;14.06;51.60;99208.66;1829009;78;21474;-59
2022/04/11 05:06:11;;;;;;;6.17;3.20;;;;;;;14.07;51.64;99208.45;1828889;78;21013;-59
2022/04/11 05:08:39;;;;;;;4.65;2.98;;;;;;;14.08;51.64;99209.27;1828999;78;21026;-59
2022/04/11 05:11:07;;;;;;;5.17;3.40;;;;;;;14.07;51.64;99211.13;1828883;78;21223;-59
2022/04/11 05:13:35;;;;;;;7.03;3.40;;;;;;;14.10;51.62;99216.56;1827738;78;21516;-59
2022/04/11 05:16:03;;;;;;;5.10;2.80;;;;;;;14.10;51.63;99209.89;1830613;76;21007;-60
2022/04/11 05:18:31;;;;;;;4.25;3.22;;;;;;;14.11;51.62;99208.87;1831753;78;20978;-59
2022/04/11 05:20:59;;;;;;;7.80;2.98;;;;;;;14.12;51.63;99213.20;1831914;78;21521;-58
2022/04/11 05:23:27;;;;;;;4.10;2.85;;;;;;;14.12;51.61;99211.87;1832136;78;21425;-59
2022/04/11 05:28:34;;;;;;;4.70;2.80;;;;;;;14.20;51.63;99206.32;1889395;76;27925;-59
2022/04/11 05:31:02;;;;;;;4.60;3.08;;;;;;;14.17;51.62;99204.05;1854541;77;21037;-60
2022/04/11 05:33:32;;;;;;;5.65;3.00;;;;;;;14.20;51.61;99205.47;1860196;77;21105;-59
2022/04/11 05:35:59;;;;;;;4.10;2.77;;;;;;;14.21;51.60;99204.46;1860178;77;20926;-59
2022/04/11 05:38:26;;;;;;;4.20;3.08;;;;;;;14.23;51.61;99209.09;1860246;77;21024;-59
2022/04/11 05:40:53;;;;;;;5.33;2.87;;;;;;;14.24;51.60;99208.89;1860241;77;21021;-60
2022/04/11 05:43:22;;;;;;;4.65;2.70;;;;;;;14.25;51.60;99209.18;1858526;77;20988;-60
2022/04/11 05:45:50;;;;;;;4.40;2.90;;;;;;;14.27;51.64;99209.80;1860213;77;21124;-60
2022/04/11 05:48:16;;;;;;;4.42;2.98;;;;;;;14.29;51.62;99217.13;1856477;77;21012;-59
2022/04/11 05:50:45;;;;;;;4.22;2.77;;;;;;;14.32;51.63;99218.55;1860343;77;21024;-59
2022/04/11 05:53:11;;;;;;;4.65;3.10;;;;;;;14.33;51.66;99214.34;1860296;77;21040;-59
2022/04/11 05:55:40;;;;;;;3.90;2.98;;;;;;;14.35;51.67;99218.97;1827554;77;21564;-59
2022/04/11 05:58:08;;;;;;;4.87;3.25;;;;;;;14.38;51.67;99223.59;1860143;77;21127;-58
2022/04/11 06:00:35;;;;;;;4.62;3.40;;;;;;;14.40;51.69;99220.20;1860009;77;21064;-60
2022/04/11 06:03:02;;;;;;;4.85;3.08;;;;;;;14.42;51.66;99219.48;1860136;77;21013;-60
2022/04/11 06:05:29;;;;;;;4.62;3.27;;;;;;;14.43;51.66;99219.77;1853749;77;20978;-60
2022/04/11 06:07:56;;;;;;;5.30;2.77;;;;;;;14.46;51.65;99226.05;1852185;77;21028;-59
2022/04/11 06:10:23;;;;;;;5.62;3.02;;;;;;;14.48;51.65;99219.98;1852112;77;21129;-60
2022/04/11 06:12:50;;;;;;;5.00;2.67;;;;;;;14.49;51.63;99222.98;1852084;77;21071;-59
2022/04/11 06:15:18;;;;;;;6.12;3.67;;;;;;;14.52;51.66;99225.22;1852017;77;21138;-60
2022/04/11 06:17:48;;;;;;;4.42;3.20;;;;;;;14.53;51.62;99225.54;1852392;77;21072;-59
2022/04/11 06:20:16;;;;;;;4.42;3.17;;;;;;;14.54;51.63;99230.69;1851986;77;20966;-58
2022/04/11 06:22:44;;;;;;;6.83;3.00;;;;;;;14.55;51.63;99236.33;1851942;77;21243;-60
2022/04/11 06:25:12;;;;;;;3.92;3.05;;;;;;;14.58;51.64;99249.00;1852014;77;21002;-60
2022/04/11 06:27:39;;;;;;;3.92;2.90;;;;;;;14.59;51.64;99253.33;1851968;77;20997;-60
2022/04/11 06:30:08;;;;;;;4.28;3.10;;;;;;;14.61;51.64;99253.42;1853637;77;21011;-59
2022/04/11 06:32:36;;;;;;;5.03;3.40;;;;;;;14.64;51.66;99258.86;1826991;77;21034;-60
2022/04/11 06:35:04;;;;;;;3.60;2.55;;;;;;;14.66;51.65;99261.66;1860119;77;21241;-59
2022/04/11 06:37:32;;;;;;;4.03;3.10;;;;;;;14.68;51.65;99256.92;1851055;77;21466;-59
2022/04/11 06:40:01;;;;;;;5.42;3.10;;;;;;;14.72;51.66;99250.66;1851224;77;21514;-59
2022/04/11 06:42:29;;;;;;;4.20;2.83;;;;;;;14.74;51.68;99253.94;1851509;77;20986;-59
2022/04/11 06:44:57;;;;;;;3.50;2.83;;;;;;;14.75;51.64;99247.02;1851545;77;21056;-61
2022/04/11 06:47:27;;;;;;;3.47;2.90;;;;;;;14.79;51.63;99247.96;1851230;77;21054;-59
2022/04/11 06:49:54;;;;;;;5.28;3.52;;;;;;;14.80;51.62;99247.76;1851377;77;21064;-59
2022/04/11 06:52:21;;;;;;;4.83;2.85;;;;;;;14.82;51.65;99247.03;1851460;77;21015;-60
2022/04/11 06:54:49;;;;;;;3.47;2.80;;;;;;;14.85;51.62;99245.78;1851226;77;21010;-59
2022/04/11 06:57:15;;;;;;;3.85;3.08;;;;;;;14.87;51.59;99246.40;1851402;77;20975;-59
2022/04/11 06:59:43;;;;;;;4.10;3.10;;;;;;;14.88;51.57;99244.86;1851747;77;21134;-60
2022/04/11 07:02:09;;;;;;;4.67;3.00;;;;;;;14.91;51.56;99242.27;1851783;77;20966;-59
2022/04/11 07:04:37;;;;;;;3.70;2.60;;;;;;;14.93;51.53;99240.21;1851370;77;21478;-59
2022/04/11 07:07:04;;;;;;;3.72;2.55;;;;;;;14.96;51.58;99237.13;1851379;77;21033;-59
2022/04/11 07:09:31;;;;;;;3.90;2.80;;;;;;;14.98;51.63;99239.60;1851359;77;21592;-59
2022/04/11 07:11:58;;;;;;;3.25;2.52;;;;;;;15.00;51.62;99242.36;1848197;77;21081;-59
2022/04/11 07:14:26;;;;;;;3.67;2.72;;;;;;;15.02;51.61;99238.97;1824030;78;21553;-61
2022/04/11 07:16:52;;;;;;;3.52;2.45;;;;;;;15.05;51.64;99237.22;1824050;78;21056;-60
2022/04/11 07:19:20;;;;;;;4.62;2.98;;;;;;;15.07;51.69;99247.19;1824000;78;21077;-60
2022/04/11 07:21:47;;;;;;;3.15;2.50;;;;;;;15.10;51.69;99247.28;1824177;78;21572;-59
2022/04/11 07:24:14;;;;;;;3.47;2.37;;;;;;;15.12;51.78;99248.73;1824154;78;21125;-59
2022/04/11 07:26:42;;;;;;;3.20;2.40;;;;;;;15.15;51.79;99252.84;1823907;78;21029;-59
2022/04/11 07:29:09;;;;;;;4.80;2.95;;;;;;;15.18;51.85;99265.77;1812661;77;21022;-59
2022/04/11 07:31:35;;;;;;;2.72;2.25;;;;;;;15.21;51.91;99263.22;1839716;77;21026;-59
2022/04/11 07:34:03;;;;;;;4.53;2.40;;;;;;;15.22;51.94;99260.34;1846191;77;20982;-60
2022/04/11 07:36:30;;;;;;;3.15;2.60;;;;;;;15.24;51.88;99257.42;1845989;77;21230;-60
2022/04/11 07:38:57;;;;;;;3.92;2.47;;;;;;;15.25;51.81;99262.58;1845953;77;21064;-59
2022/04/11 07:41:24;;;;;;;3.47;2.30;;;;;;;15.27;51.79;99269.87;1845971;77;20978;-59
2022/04/11 07:43:54;;;;;;;3.05;2.50;;;;;;;15.29;51.76;99275.02;1844482;77;21014;-59
2022/04/11 07:46:21;;;;;;;3.92;2.12;;;;;;;15.30;51.70;99282.03;1827382;77;21565;-58
2022/04/11 07:48:47;;;;;;;3.55;2.40;;;;;;;15.31;51.68;99281.80;1812949;79;21412;-61
2022/04/11 07:51:14;;;;;;;3.58;2.52;;;;;;;15.33;51.68;99285.61;1812662;79;21392;-60
2022/04/11 07:53:40;;;;;;;3.75;2.30;;;;;;;15.34;51.75;99285.93;1812722;79;21085;-59
2022/04/11 07:56:07;;;;;;;3.10;2.50;;;;;;;15.36;51.72;99292.41;1812857;79;21022;-59
2022/04/11 07:58:33;;;;;;;2.80;2.42;;;;;;;15.37;51.68;99296.20;1812868;79;21041;-59
2022/04/11 08:01:00;;;;;;;3.70;2.95;;;;;;;15.40;51.77;99293.64;1812858;79;21775;-59
2022/04/11 08:03:27;;;;;;;3.47;2.22;;;;;;;15.42;51.75;99294.25;1813868;77;21057;-59
2022/04/11 08:05:53;;;;;;;3.37;2.87;;;;;;;15.43;51.67;99294.05;1812777;79;21107;-60
2022/04/11 08:08:20;;;;;;;3.15;2.10;;;;;;;15.46;51.70;99297.62;1813002;79;22016;-60
2022/04/11 08:10:46;;;;;;;3.22;2.75;;;;;;;15.48;51.67;99293.40;1812832;79;21289;-60
2022/04/11 08:13:13;;;;;;;3.45;2.47;;;;;;;15.50;51.70;99298.84;1812815;79;21489;-60
2022/04/11 08:15:41;;;;;;;3.30;2.60;;;;;;;15.52;51.66;99299.45;1812719;79;20970;-60
2022/04/11 08:18:08;;;;;;;3.15;2.08;;;;;;;15.54;51.58;99297.38;1812907;79;21068;-60
2022/04/11 08:20:34;;;;;;;2.45;2.02;;;;;;;15.57;51.59;99292.14;1813875;77;21525;-60
2022/04/11 08:23:03;;;;;;;3.70;2.22;;;;;;;15.59;51.54;99290.56;1812864;79;21083;-60
2022/04/11 08:25:30;;;;;;;2.35;2.00;;;;;;;15.61;51.53;99290.67;1812777;79;21751;-60
2022/04/11 08:27:57;;;;;;;3.98;2.40;;;;;;;15.62;51.45;99284.27;1812641;78;21070;-60
2022/04/11 08:30:24;;;;;;;2.85;2.47;;;;;;;15.64;51.45;99277.37;1823296;77;21157;-60
2022/04/11 08:32:51;;;;;;;4.00;2.47;;;;;;;15.66;51.42;99274.78;1846086;77;21118;-60
2022/04/11 08:35:21;;;;;;;3.05;2.45;;;;;;;15.68;51.33;99270.06;1846162;77;21024;-59
2022/04/11 08:37:49;;;;;;;2.98;2.15;;;;;;;15.70;51.28;99272.50;1845198;77;21046;-60
2022/04/11 08:40:21;;;;;;;2.67;2.12;;;;;;;15.71;51.26;99272.81;1845919;77;20985;-58
2022/04/11 08:42:51;;;;;;;3.47;2.40;;;;;;;15.72;51.20;99275.29;1846121;77;21002;-60
2022/04/11 08:45:21;;;;;;;3.10;2.67;;;;;;;15.75;51.17;99269.23;1846592;77;20994;-60
2022/04/11 08:47:48;;;;;;;3.45;2.37;;;;;;;15.77;51.17;99263.95;1842119;77;21052;-60
2022/04/11 08:50:15;;;;;;;3.17;2.20;;;;;;;15.79;51.14;99266.43;1805128;79;21137;-59
2022/04/11 08:52:41;;;;;;;2.95;2.30;;;;;;;15.81;51.09;99258.47;1815350;79;21010;-61
2022/04/11 08:55:09;;;;;;;3.20;2.15;;;;;;;15.84;51.03;99266.09;1822448;77;21072;-61
2022/04/11 08:57:37;;;;;;;2.92;2.15;;;;;;;15.88;50.96;99266.49;1825322;78;21071;-60
2022/04/11 09:00:09;;;;;;;2.55;1.90;;;;;;;15.89;50.94;99269.46;1825436;78;21032;-59
2022/04/11 09:02:39;;;;;;;2.42;2.10;;;;;;;15.91;50.88;99269.53;1824986;78;21098;-60
2022/04/11 09:05:06;;;;;;;2.65;1.95;;;;;;;15.94;50.85;99274.19;1825450;78;20988;-60
2022/04/11 09:07:50;;;;;;;2.55;2.33;;;;;;;15.97;50.82;99271.06;1825552;78;21060;-60
2022/04/11 09:10:22;;;;;;;2.33;2.12;;;;;;;15.99;50.75;99263.63;1825593;78;21047;-60
2022/04/11 09:12:55;;;;;;;;;;;;;;;16.02;50.72;99271.25;1828960;77;21079;-60
2022/04/11 09:15:27;;;;;;;2.65;1.98;;;;;;;16.04;50.72;99261.14;1825499;78;21145;-61
2022/04/11 09:17:52;;;;;;;2.85;2.00;;;;;;;16.06;50.83;99263.90;1824196;78;21279;-60
2022/04/11 09:20:28;;;;;;;2.85;1.70;;;;;;;16.09;51.02;99294.81;1825373;78;21098;-59
2022/04/11 09:22:57;;;;;;;3.65;2.52;;;;;;;16.12;51.15;99306.43;1825400;78;21544;-59
2022/04/11 09:25:30;;;;;;;2.15;1.80;;;;;;;16.17;51.30;99308.45;1825372;78;20969;-60
2022/04/11 09:28:10;;;;;;;3.22;2.02;;;;;;;16.19;51.36;99299.18;1830911;76;21965;-59
2022/04/11 09:30:43;;;;;;;2.47;2.00;;;;;;;16.22;51.45;99283.99;1853574;77;20993;-59
2022/04/11 09:33:11;;;;;;;2.67;2.08;;;;;;;16.26;51.87;99295.11;1863239;77;21040;-60
2022/04/11 09:35:41;;;;;;;2.80;2.10;;;;;;;16.29;52.07;99310.24;1863011;77;22112;-60
2022/04/11 09:38:18;;;;;;;2.30;1.70;;;;;;;16.33;52.16;99306.61;1862704;77;20994;-60
2022/04/11 09:40:52;;;;;;;3.10;2.12;;;;;;;16.35;52.11;99305.06;1863094;77;21207;-60
2022/04/11 09:43:25;;;;;;;2.12;1.92;;;;;;;16.37;52.01;99300.31;1863391;76;21044;-59
2022/04/11 09:45:52;;;;;;;2.15;1.70;;;;;;;16.40;52.03;99301.20;1847286;77;21041;-60
2022/04/11 09:48:27;;;;;;;3.02;2.15;;;;;;;16.41;52.10;99310.37;1829174;78;21075;-59
2022/04/11 09:50:56;;;;;;;2.33;1.80;;;;;;;16.45;52.24;99312.10;1828915;78;21540;-60
2022/04/11 09:53:32;;;;;;;2.92;2.20;;;;;;;16.46;52.23;99315.91;1832299;77;21136;-60
2022/04/11 09:56:03;;;;;;;2.72;2.17;;;;;;;16.49;52.20;99307.42;1833668;77;21099;-60
2022/04/11 09:58:35;;;;;;;2.83;2.08;;;;;;;16.53;52.12;99317.72;1849928;77;28173;-59
2022/04/11 10:01:04;;;;;;;2.15;1.95;;;;;;;16.54;51.95;99311.33;1862080;77;21037;-60
2022/04/11 10:03:31;;;;;;;2.40;2.20;;;;;;;16.56;51.78;99310.59;1855871;77;21507;-58
2022/04/11 10:05:57;;;;;;;2.60;1.95;;;;;;;16.58;51.65;99313.35;1853694;77;21121;-59
2022/04/11 10:08:26;;;;;;;1.95;1.70;;;;;;;16.59;51.48;99308.80;1773785;81;21001;-59
2022/04/11 10:10:55;;;;;;;2.50;2.30;;;;;;;16.60;51.30;99313.95;1805419;79;21029;-59
2022/04/11 10:13:23;;;;;;;2.47;2.27;;;;;;;16.63;51.45;99314.02;1773431;80;21033;-60
2022/04/11 10:15:51;;;;;;;2.95;2.00;;;;;;;16.68;51.76;99311.52;1805520;79;21045;-60
2022/04/11 10:18:25;;;;;;;2.00;1.80;;;;;;;16.70;51.81;99302.20;1773854;80;21122;-60
2022/04/11 10:20:59;;;;;;;2.58;1.92;;;;;;;16.75;51.93;99307.46;1776795;79;21009;-60
2022/04/11 10:23:42;;;;;;;1.87;1.77;;;;;;;16.78;51.96;99302.98;1793296;80;21510;-60
2022/04/11 10:26:15;;;;;;;1.82;1.70;;;;;;;16.81;51.88;99315.44;1765381;81;21010;-59
2022/04/11 10:28:46;;;;;;;2.25;1.80;;;;;;;16.83;51.76;99313.92;1791479;79;21510;-59
2022/04/11 10:31:14;;;;;;;2.58;1.65;;;;;;;16.84;51.72;99307.00;1789445;80;21258;-60
2022/04/11 10:33:55;;;;;;;2.30;1.87;;;;;;;16.88;51.65;99319.42;1787916;80;21014;-59
2022/04/11 10:36:36;;;;;;;2.92;2.10;;;;;;;16.89;51.60;99321.89;1817116;78;21514;-59
2022/04/11 10:39:20;;;;;;;1.95;1.70;;;;;;;16.92;51.56;99320.66;1789345;80;21037;-60
2022/04/11 10:42:06;;;;;;;2.50;1.90;;;;;;;16.95;51.42;99317.52;1789274;80;21073;-59
2022/04/11 10:44:45;;;;;;;2.45;1.87;;;;;;;16.95;51.27;99309.47;1789105;79;21144;-60
2022/04/11 10:47:26;;;;;;;2.45;2.00;;;;;;;16.97;51.30;99306.57;1789062;80;20998;-60
2022/04/11 10:50:01;;;;;;;2.42;1.85;;;;;;;16.98;51.22;99298.80;1789290;79;21061;-59
2022/04/11 10:52:33;;;;;;;2.10;1.90;;;;;;;16.99;51.10;99289.73;1789169;80;21072;-59
2022/04/11 10:55:14;;;;;;;2.08;1.85;;;;;;;17.00;51.07;99290.86;1789134;79;21017;-59
2022/04/11 10:57:53;;;;;;;2.02;1.75;;;;;;;17.02;51.22;99286.09;1789195;80;21253;-60
2022/04/11 11:00:31;;;;;;;2.80;1.80;;;;;;;17.05;51.44;99299.57;1795228;79;21017;-59
2022/04/11 11:03:04;;;;;;;2.10;1.90;;;;;;;17.08;51.56;99293.25;1801990;79;21544;-60
2022/04/11 11:05:48;;;;;;;1.98;1.70;;;;;;;17.10;51.53;99299.20;1802439;79;21072;-59
2022/04/11 11:08:23;;;;;;;2.30;1.85;;;;;;;17.13;51.39;99298.47;1802175;79;21033;-60
2022/04/11 11:11:00;;;;;;;2.80;2.30;;;;;;;17.14;51.17;99296.09;1796214;79;21030;-59
2022/04/11 11:13:38;;;;;;;2.12;1.72;;;;;;;17.15;51.01;99297.19;1777520;80;21030;-59
2022/04/11 11:16:14;;;;;;;2.15;1.92;;;;;;;17.16;50.84;99289.98;1781975;80;21022;-59
2022/04/11 11:18:52;;;;;;;2.17;1.98;;;;;;;17.17;50.71;99300.50;1781703;80;21573;-59
2022/04/11 11:21:37;;;;;;;2.22;1.90;;;;;;;17.16;50.58;99309.58;1781592;80;21022;-60
2022/04/11 11:24:09;;;;;;;2.98;2.10;;;;;;;17.16;50.40;99310.92;1781699;80;21148;-59
2022/04/11 11:26:59;;;;;;;2.60;1.90;;;;;;;17.16;50.35;99318.98;1781715;80;21026;-60
2022/04/11 11:29:43;;;;;;;2.72;2.02;;;;;;;17.16;50.26;99311.45;1753664;81;21077;-59
2022/04/11 11:32:14;;;;;;;1.95;1.85;;;;;;;17.16;50.12;99318.98;1747718;82;21031;-59
2022/04/11 11:34:42;;;;;;;2.12;1.92;;;;;;;17.15;49.91;99316.51;1747669;82;21045;-60
2022/04/11 11:37:11;;;;;;;2.25;2.00;;;;;;;17.16;49.79;99312.80;1747737;82;21146;-60
2022/04/11 11:39:41;;;;;;;2.40;2.20;;;;;;;17.16;49.72;99319.51;1747752;82;21524;-60
2022/04/11 11:42:11;;;;;;;2.20;2.00;;;;;;;17.15;49.62;99309.80;1747726;82;21535;-60
2022/04/11 11:44:47;;;;;;;2.25;2.02;;;;;;;17.14;49.53;99302.80;1748694;80;21538;-60
2022/04/11 11:47:14;;;;;;;2.22;2.02;;;;;;;17.15;49.46;99303.09;1747870;82;21065;-59